sensor_id;sensor_type;location;lat;lon;timestamp;pressure;altitude;pressure_sealevel;temperature;humidity
3697;BME280;60662;48.810;8.872;2023-02-23T09:11:31;96278.69;;;12.05;75.78
3697;BME280;60662;48.810;8.872;2023-02-23T09:12:33;96279.38;;;13.13;73.18
3697;BME280;60662;48.810;8.872;2023-02-23T09:13:35;96265.44;;;13.27;72.36
3697;BME280;60662;48.810;8.872;2023-02-23T09:14:36;96277.00;;;14.22;70.44
3697;BME280;60662;48.810;8.872;2023-02-23T09:15:38;96277.03;;;14.08;68.83
3697;BME280;60662;48.810;8.872;2023-02-23T09:16:40;96274.63;;;13.48;69.04
3697;BME280;60662;48.810;8.872;2023-02-23T09:17:41;96273.59;;;13.22;70.99
3697;BME280;60662;48.810;8.872;2023-02-23T09:18:45;96266.28;;;14.25;68.55
3697;BME280;60662;48.810;8.872;2023-02-23T09:19:46;96276.59;;;14.81;66.03
3697;BME280;60662;48.810;8.872;2023-02-23T09:20:47;96270.75;;;14.50;66.01
3697;BME280;60662;48.810;8.872;2023-02-23T09:21:49;96270.84;;;15.02;64.67
3697;BME280;60662;48.810;8.872;2023-02-23T09:22:51;96273.03;;;14.82;65.32
3697;BME280;60662;48.810;8.872;2023-02-23T09:23:53;96273.47;;;14.09;66.28
3697;BME280;60662;48.810;8.872;2023-02-23T09:24:56;96274.13;;;14.52;66.53
3697;BME280;60662;48.810;8.872;2023-02-23T09:26:04;96272.38;;;14.66;65.53
3697;BME280;60662;48.810;8.872;2023-02-23T09:27:06;96273.69;;;14.59;65.05
3697;BME280;60662;48.810;8.872;2023-02-23T09:28:10;96273.16;;;14.94;64.41
3697;BME280;60662;48.810;8.872;2023-02-23T09:29:12;96264.72;;;14.76;63.98
3697;BME280;60662;48.810;8.872;2023-02-23T09:30:14;96264.44;;;15.06;63.17
3697;BME280;60662;48.810;8.872;2023-02-23T09:31:20;96270.91;;;14.34;64.47
3697;BME280;60662;48.810;8.872;2023-02-23T09:32:23;96267.31;;;14.63;64.29
3697;BME280;60662;48.810;8.872;2023-02-23T09:33:24;96276.00;;;15.16;63.80
3697;BME280;60662;48.810;8.872;2023-02-23T09:34:26;96261.47;;;15.37;62.26
3697;BME280;60662;48.810;8.872;2023-02-23T09:35:31;96262.53;;;15.21;63.06
3697;BME280;60662;48.810;8.872;2023-02-23T09:36:32;96269.78;;;15.17;63.24
3697;BME280;60662;48.810;8.872;2023-02-23T09:37:34;96277.06;;;15.01;64.54
3697;BME280;60662;48.810;8.872;2023-02-23T09:38:35;96272.94;;;15.23;65.30
3697;BME280;60662;48.810;8.872;2023-02-23T09:39:37;96271.03;;;14.86;64.64
3697;BME280;60662;48.810;8.872;2023-02-23T09:40:45;96267.38;;;14.89;65.12
3697;BME280;60662;48.810;8.872;2023-02-23T09:42:10;96275.56;;;15.23;63.77
3697;BME280;60662;48.810;8.872;2023-02-23T09:48:54;96261.84;;;15.43;62.45
3697;BME280;60662;48.810;8.872;2023-02-23T09:49:58;96269.72;;;16.06;61.60
3697;BME280;60662;48.810;8.872;2023-02-23T09:51:04;96272.22;;;16.32;59.83
3697;BME280;60662;48.810;8.872;2023-02-23T09:52:15;96266.47;;;16.27;59.44
3697;BME280;60662;48.810;8.872;2023-02-23T09:53:27;96264.34;;;16.08;59.29
3697;BME280;60662;48.810;8.872;2023-02-23T09:54:32;96268.53;;;15.73;60.37
3697;BME280;60662;48.810;8.872;2023-02-23T09:55:37;96269.69;;;15.19;62.85
3697;BME280;60662;48.810;8.872;2023-02-23T09:56:46;96263.78;;;15.15;62.19
3697;BME280;60662;48.810;8.872;2023-02-23T09:57:48;96269.75;;;14.66;62.76
3697;BME280;60662;48.810;8.872;2023-02-23T09:58:50;96260.03;;;14.13;63.91
3697;BME280;60662;48.810;8.872;2023-02-23T09:59:51;96271.97;;;14.45;64.54
3697;BME280;60662;48.810;8.872;2023-02-23T10:03:30;96277.03;;;13.66;67.84
3697;BME280;60662;48.810;8.872;2023-02-23T10:04:46;96278.13;;;13.76;67.67
3697;BME280;60662;48.810;8.872;2023-02-23T10:05:59;96269.22;;;13.93;67.66
3697;BME280;60662;48.810;8.872;2023-02-23T10:11:14;96285.31;;;12.57;71.86
3697;BME280;60662;48.810;8.872;2023-02-23T10:12:29;96290.06;;;13.10;69.46
3697;BME280;60662;48.810;8.872;2023-02-23T10:15:46;96278.91;;;14.73;65.37
3697;BME280;60662;48.810;8.872;2023-02-23T10:18:01;96276.66;;;14.54;64.73
3697;BME280;60662;48.810;8.872;2023-02-23T10:19:18;96265.25;;;14.41;63.54
3697;BME280;60662;48.810;8.872;2023-02-23T10:20:27;96276.41;;;14.84;63.14
3697;BME280;60662;48.810;8.872;2023-02-23T10:21:37;96280.13;;;15.58;61.29
3697;BME280;60662;48.810;8.872;2023-02-23T10:22:39;96283.34;;;15.74;59.85
3697;BME280;60662;48.810;8.872;2023-02-23T10:23:45;96281.06;;;15.70;60.40
3697;BME280;60662;48.810;8.872;2023-02-23T10:24:53;96262.31;;;15.74;60.62
3697;BME280;60662;48.810;8.872;2023-02-23T10:25:58;96280.28;;;15.93;60.15
3697;BME280;60662;48.810;8.872;2023-02-23T10:27:19;96275.97;;;15.29;61.67
3697;BME280;60662;48.810;8.872;2023-02-23T10:28:21;96276.94;;;15.02;62.77
3697;BME280;60662;48.810;8.872;2023-02-23T10:29:45;96280.78;;;14.31;63.82
3697;BME280;60662;48.810;8.872;2023-02-23T10:30:49;96273.25;;;14.39;64.15
3697;BME280;60662;48.810;8.872;2023-02-23T10:31:56;96279.00;;;13.62;65.10
3697;BME280;60662;48.810;8.872;2023-02-23T10:33:13;96270.31;;;13.04;65.71
3697;BME280;60662;48.810;8.872;2023-02-23T10:34:17;96283.94;;;12.80;66.17
3697;BME280;60662;48.810;8.872;2023-02-23T10:35:20;96281.38;;;12.64;66.28
3697;BME280;60662;48.810;8.872;2023-02-23T10:36:36;96279.63;;;12.65;65.95
3697;BME280;60662;48.810;8.872;2023-02-23T10:37:39;96276.16;;;12.34;68.34
3697;BME280;60662;48.810;8.872;2023-02-23T10:38:40;96281.00;;;12.25;69.88
3697;BME280;60662;48.810;8.872;2023-02-23T10:39:42;96277.50;;;12.41;67.81
3697;BME280;60662;48.810;8.872;2023-02-23T10:40:47;96280.38;;;12.36;67.43
3697;BME280;60662;48.810;8.872;2023-02-23T10:41:50;96283.50;;;12.43;67.83
3697;BME280;60662;48.810;8.872;2023-02-23T10:42:57;96280.72;;;12.30;68.02
3697;BME280;60662;48.810;8.872;2023-02-23T10:44:00;96269.50;;;12.28;67.89
3697;BME280;60662;48.810;8.872;2023-02-23T10:45:19;96278.31;;;12.11;68.38
3697;BME280;60662;48.810;8.872;2023-02-23T10:46:32;96280.38;;;12.36;68.08
3697;BME280;60662;48.810;8.872;2023-02-23T10:47:36;96282.22;;;12.04;69.73
3697;BME280;60662;48.810;8.872;2023-02-23T10:48:39;96281.84;;;11.78;69.12
3697;BME280;60662;48.810;8.872;2023-02-23T10:49:46;96286.34;;;11.76;67.67
3697;BME280;60662;48.810;8.872;2023-02-23T10:50:49;96278.81;;;11.54;70.09
3697;BME280;60662;48.810;8.872;2023-02-23T10:51:52;96285.91;;;11.68;70.66
3697;BME280;60662;48.810;8.872;2023-02-23T10:53:15;96276.03;;;11.57;72.33
3697;BME280;60662;48.810;8.872;2023-02-23T10:54:34;96281.41;;;11.54;72.06
3697;BME280;60662;48.810;8.872;2023-02-23T10:55:35;96293.00;;;11.66;71.93
3697;BME280;60662;48.810;8.872;2023-02-23T10:56:43;96285.38;;;11.93;71.22
3697;BME280;60662;48.810;8.872;2023-02-23T12:01:53;96227.97;;;14.48;62.48
3697;BME280;60662;48.810;8.872;2023-02-23T12:02:58;96233.59;;;15.71;60.07
3697;BME280;60662;48.810;8.872;2023-02-23T12:04:01;96236.75;;;15.63;58.97
3697;BME280;60662;48.810;8.872;2023-02-23T12:05:07;96235.78;;;15.14;58.76
3697;BME280;60662;48.810;8.872;2023-02-23T12:06:09;96229.81;;;14.99;59.79
3697;BME280;60662;48.810;8.872;2023-02-23T12:08:43;96237.28;;;15.68;59.48
3697;BME280;60662;48.810;8.872;2023-02-23T12:09:59;96238.19;;;15.43;60.85
3697;BME280;60662;48.810;8.872;2023-02-23T12:11:07;96232.63;;;15.22;61.15
3697;BME280;60662;48.810;8.872;2023-02-23T12:12:16;96236.84;;;15.12;62.07
3697;BME280;60662;48.810;8.872;2023-02-23T12:13:39;96213.84;;;14.77;62.66
3697;BME280;60662;48.810;8.872;2023-02-23T12:14:46;96227.13;;;14.48;61.97
3697;BME280;60662;48.810;8.872;2023-02-23T12:16:09;96227.31;;;14.32;63.54
3697;BME280;60662;48.810;8.872;2023-02-23T12:17:22;96230.00;;;14.17;63.26
3697;BME280;60662;48.810;8.872;2023-02-23T12:18:39;96230.63;;;14.08;64.35
